Time;durP1;ratioP1;P1;durP2;ratioP2;P2;SDS_P1;SDS_P2;PMS_P1;PMS_P2;Temp;Humidity;BMP_temperature;BMP_pressure;BME280_temperature;BME280_humidity;BME280_pressure;Samples;Min_cycle;Max_cycle;Signal;HPM_P1;HPM_P2
2022/01/02 00:01:51;;;;;;;68.10;30.98;;;9.60;99.90;;;;;;5066489;28;20032;-66
2022/01/02 00:04:19;;;;;;;71.47;31.40;;;9.60;99.90;;;;;;5069798;28;20028;-66
2022/01/02 00:06:48;;;;;;;73.13;32.38;;;9.60;99.90;;;;;;5044477;28;20029;-66
2022/01/02 00:09:30;;;;;;;71.85;33.03;;;9.60;99.90;;;;;;5046146;28;20445;-66
2022/01/02 00:12:13;;;;;;;76.72;30.60;;;9.60;99.90;;;;;;5071798;28;20036;-66
2022/01/02 00:14:47;;;;;;;70.83;31.97;;;9.60;99.90;;;;;;5070542;28;20513;-66
2022/01/02 00:17:17;;;;;;;61.10;28.77;;;9.60;99.90;;;;;;5068710;28;20306;-66
2022/01/02 00:19:51;;;;;;;65.90;29.02;;;9.60;99.90;;;;;;5062577;28;20131;-66
2022/01/02 00:22:19;;;;;;;64.38;29.08;;;9.60;99.90;;;;;;5068586;28;20050;-66
2022/01/02 00:24:47;;;;;;;62.05;28.52;;;9.50;99.90;;;;;;5070698;28;20036;-66
2022/01/02 00:27:15;;;;;;;68.18;28.88;;;9.50;99.90;;;;;;5068471;28;20024;-66
2022/01/02 00:29:42;;;;;;;73.35;28.63;;;9.50;99.90;;;;;;5065087;28;20108;-66
2022/01/02 00:32:09;;;;;;;63.33;28.77;;;9.40;99.90;;;;;;5047904;28;20502;-66
2022/01/02 00:34:37;;;;;;;72.88;31.73;;;9.40;99.90;;;;;;5066387;28;20090;-66
2022/01/02 00:37:04;;;;;;;75.57;32.88;;;9.40;99.90;;;;;;5060223;28;21143;-66
2022/01/02 00:39:30;;;;;;;70.72;29.73;;;9.50;99.90;;;;;;5069416;28;20043;-66
2022/01/02 00:42:02;;;;;;;60.65;26.67;;;9.50;99.90;;;;;;5067431;28;20036;-66
2022/01/02 00:44:43;;;;;;;72.88;30.52;;;9.50;99.90;;;;;;5047081;28;20111;-66
2022/01/02 00:47:33;;;;;;;68.40;28.80;;;9.50;99.90;;;;;;5043915;28;20025;-66
2022/01/02 00:50:12;;;;;;;70.15;29.52;;;9.50;99.90;;;;;;5060948;28;20032;-66
2022/01/02 00:52:43;;;;;;;75.57;29.75;;;9.60;99.90;;;;;;5065360;28;20509;-66
2022/01/02 00:55:12;;;;;;;78.72;31.23;;;9.60;99.90;;;;;;5065406;28;20041;-66
2022/01/02 00:57:41;;;;;;;78.30;32.65;;;9.60;99.90;;;;;;5068939;28;20029;-66
2022/01/02 01:00:15;;;;;;;81.68;33.38;;;9.60;99.90;;;;;;5067330;28;20528;-66
2022/01/02 01:02:52;;;;;;;74.32;33.25;;;9.60;99.90;;;;;;5066314;28;20045;-66
2022/01/02 01:05:26;;;;;;;85.43;33.13;;;9.60;99.90;;;;;;5065538;28;20464;-66
2022/01/02 01:07:54;;;;;;;;;;;9.60;99.90;;;;;;5060352;28;20066;-66
2022/01/02 01:10:21;;;;;;;77.03;31.85;;;9.60;99.90;;;;;;5065286;28;20397;-66
2022/01/02 01:12:51;;;;;;;86.05;35.13;;;9.60;99.90;;;;;;5060494;28;20082;-66
2022/01/02 01:15:17;;;;;;;89.78;34.17;;;9.60;99.90;;;;;;5067589;28;20075;-66
2022/01/02 01:17:45;;;;;;;86.90;35.78;;;9.60;99.90;;;;;;5066736;28;20028;-66
2022/01/02 01:20:14;;;;;;;76.13;33.20;;;9.60;99.90;;;;;;5065368;28;20040;-66
2022/01/02 01:22:41;;;;;;;87.32;35.58;;;9.60;99.90;;;;;;5067653;28;20577;-66
2022/01/02 01:25:13;;;;;;;83.82;34.72;;;9.60;99.90;;;;;;5072740;28;20028;-66
2022/01/02 01:27:40;;;;;;;89.80;34.05;;;9.60;99.90;;;;;;5071285;28;20039;-66
2022/01/02 01:30:07;;;;;;;82.68;33.55;;;9.60;99.90;;;;;;5072549;28;20033;-66
2022/01/02 01:32:33;;;;;;;79.93;31.73;;;9.60;99.90;;;;;;5070265;28;20124;-66
2022/01/02 01:34:58;;;;;;;84.55;33.85;;;9.60;99.90;;;;;;5070511;28;20107;-66
2022/01/02 01:37:24;;;;;;;87.15;34.10;;;9.60;99.90;;;;;;5069868;28;20374;-66
2022/01/02 01:39:50;;;;;;;97.88;34.30;;;9.60;99.90;;;;;;5063595;28;20040;-66
2022/01/02 01:42:26;;;;;;;95.05;35.17;;;9.60;99.90;;;;;;5070506;28;20059;-66
2022/01/02 01:45:28;;;;;;;88.55;34.78;;;9.70;99.90;;;;;;5070172;28;20041;-66
2022/01/02 01:47:38;;;;;;;92.97;34.20;;;9.60;99.90;;;;;;5055688;28;20456;-66
2022/01/02 01:50:04;;;;;;;100.97;36.72;;;9.70;99.90;;;;;;5069293;28;20028;-67
2022/01/02 01:52:30;;;;;;;90.85;35.25;;;9.70;99.90;;;;;;5069153;28;20048;-67
2022/01/02 01:54:55;;;;;;;92.90;35.83;;;9.70;99.90;;;;;;5071663;28;20474;-66
2022/01/02 01:57:21;;;;;;;93.22;34.05;;;9.70;99.90;;;;;;5070047;28;20044;-68
2022/01/02 01:59:48;;;;;;;100.07;35.97;;;9.70;99.90;;;;;;5069846;28;20057;-66
2022/01/02 02:02:15;;;;;;;97.70;35.55;;;9.70;99.90;;;;;;5068934;28;20066;-66
2022/01/02 02:04:42;;;;;;;98.65;33.55;;;9.60;99.90;;;;;;5068569;28;20541;-66
2022/01/02 02:07:07;;;;;;;102.47;34.38;;;9.60;99.90;;;;;;5071323;28;20395;-66
2022/01/02 02:09:50;;;;;;;107.38;34.75;;;9.60;99.90;;;;;;5068477;28;20024;-66
2022/01/02 02:12:17;;;;;;;119.78;35.45;;;9.60;99.90;;;;;;5069008;28;20056;-66
2022/01/02 02:14:43;;;;;;;141.15;35.97;;;9.60;99.90;;;;;;5051092;28;20394;-66
2022/01/02 02:17:08;;;;;;;130.55;35.42;;;9.70;99.90;;;;;;5067809;28;20103;-66
2022/01/02 02:19:34;;;;;;;131.27;35.70;;;9.60;99.90;;;;;;5067516;28;20121;-66
2022/01/02 02:22:00;;;;;;;142.18;36.63;;;9.60;99.90;;;;;;5070852;28;20028;-67
2022/01/02 02:24:26;;;;;;;143.23;35.90;;;9.60;99.90;;;;;;5068760;28;20029;-66
2022/01/02 02:26:52;;;;;;;143.93;35.10;;;9.60;99.90;;;;;;5051551;28;20095;-66
2022/01/02 02:29:17;;;;;;;137.13;33.13;;;9.60;99.90;;;;;;5067522;28;20441;-66
2022/01/02 02:31:43;;;;;;;112.13;32.25;;;9.50;99.90;;;;;;5062143;28;20025;-66
2022/01/02 02:34:09;;;;;;;107.13;33.17;;;9.50;99.90;;;;;;5047182;28;20126;-66
2022/01/02 02:36:35;;;;;;;104.97;32.00;;;9.50;99.90;;;;;;5067043;28;20043;-66
2022/01/02 02:39:00;;;;;;;114.90;31.88;;;9.40;99.90;;;;;;5069775;28;20043;-66
2022/01/02 02:41:32;;;;;;;115.18;34.00;;;9.40;99.90;;;;;;5066742;28;20462;-66
2022/01/02 02:44:36;;;;;;;101.40;30.83;;;9.40;99.90;;;;;;5043790;28;20056;-66
2022/01/02 02:49:39;;;;;;;92.60;30.27;;;9.50;99.90;;;;;;5066930;28;20116;-66
2022/01/02 02:52:12;;;;;;;82.53;29.35;;;9.40;99.90;;;;;;5061431;28;20040;-67
2022/01/02 02:54:40;;;;;;;83.43;28.90;;;9.40;99.90;;;;;;5066446;28;20103;-66
2022/01/02 02:57:12;;;;;;;80.72;25.63;;;9.30;99.90;;;;;;5068844;28;20283;-66
2022/01/02 02:59:37;;;;;;;91.53;29.75;;;9.30;99.90;;;;;;5066436;28;20133;-66
2022/01/02 03:02:03;;;;;;;87.68;29.13;;;9.30;99.90;;;;;;5050821;28;20063;-66
2022/01/02 03:04:30;;;;;;;88.40;29.73;;;9.30;99.90;;;;;;5066922;28;20450;-66
2022/01/02 03:06:56;;;;;;;81.95;27.88;;;9.30;99.90;;;;;;5068227;28;20029;-66
2022/01/02 03:09:38;;;;;;;74.78;26.67;;;9.30;99.90;;;;;;5067430;28;20042;-66
2022/01/02 03:12:09;;;;;;;75.03;26.88;;;9.40;99.90;;;;;;5064668;28;20041;-66
2022/01/02 03:14:35;;;;;;;68.15;24.90;;;9.40;99.90;;;;;;5066903;28;20566;-66
2022/01/02 03:17:03;;;;;;;71.57;24.98;;;9.40;99.90;;;;;;5065141;28;20391;-66
2022/01/02 03:19:29;;;;;;;60.88;23.90;;;9.40;99.90;;;;;;5066243;28;20524;-66
2022/01/02 03:21:55;;;;;;;55.30;22.83;;;9.40;99.90;;;;;;5050729;28;20478;-66
2022/01/02 03:24:21;;;;;;;57.30;24.35;;;9.30;99.90;;;;;;5071222;28;20058;-66
2022/01/02 03:26:46;;;;;;;67.07;26.40;;;9.30;99.90;;;;;;5051932;28;20028;-66
2022/01/02 03:29:12;;;;;;;69.13;27.13;;;9.40;99.90;;;;;;5068524;28;20064;-66
2022/01/02 03:31:38;;;;;;;58.58;23.10;;;9.40;99.90;;;;;;5068759;28;20027;-66
2022/01/02 03:34:03;;;;;;;61.05;25.00;;;9.40;99.90;;;;;;5068660;28;20456;-66
2022/01/02 03:36:29;;;;;;;61.88;26.33;;;9.40;99.90;;;;;;5069694;28;20036;-66
2022/01/02 03:38:55;;;;;;;66.68;26.63;;;9.40;99.90;;;;;;5052924;28;20463;-66
2022/01/02 03:41:20;;;;;;;66.38;26.75;;;9.40;99.90;;;;;;5068600;28;20028;-66
2022/01/02 03:43:46;;;;;;;72.93;26.75;;;9.40;99.90;;;;;;5068545;28;20394;-66
2022/01/02 03:46:12;;;;;;;78.75;30.08;;;9.50;99.90;;;;;;5068533;28;20028;-66
2022/01/02 03:48:38;;;;;;;77.22;29.38;;;9.50;99.90;;;;;;5068930;28;20028;-67
2022/01/02 03:51:05;;;;;;;73.30;29.15;;;9.50;99.90;;;;;;5072022;28;20028;-66
2022/01/02 03:53:31;;;;;;;79.22;29.80;;;9.50;99.90;;;;;;5068400;28;20021;-66
2022/01/02 03:55:56;;;;;;;80.38;29.23;;;9.60;99.90;;;;;;5068395;28;20028;-68
2022/01/02 03:58:22;;;;;;;67.13;25.55;;;9.50;99.90;;;;;;5020395;28;20043;-68
2022/01/02 04:00:48;;;;;;;69.22;27.98;;;9.50;99.90;;;;;;5068339;28;20045;-68
2022/01/02 04:03:15;;;;;;;64.50;25.00;;;9.50;99.90;;;;;;5071233;28;20050;-68
2022/01/02 04:05:42;;;;;;;59.42;24.98;;;9.40;99.90;;;;;;5072668;28;20029;-69
2022/01/02 04:08:07;;;;;;;65.82;24.65;;;9.40;99.90;;;;;;5071584;28;20113;-68
2022/01/02 04:10:33;;;;;;;56.13;23.10;;;9.30;99.90;;;;;;5071827;28;20025;-68
2022/01/02 04:12:59;;;;;;;56.65;23.95;;;9.30;99.90;;;;;;5071788;28;20025;-68
2022/01/02 04:15:25;;;;;;;57.92;24.60;;;9.30;99.90;;;;;;5073640;28;20021;-68
2022/01/02 04:17:51;;;;;;;57.97;23.83;;;9.30;99.90;;;;;;5073378;28;20086;-68
2022/01/02 04:20:16;;;;;;;68.95;27.65;;;9.30;99.90;;;;;;5071579;28;20044;-69
2022/01/02 04:22:43;;;;;;;58.65;23.52;;;9.40;99.90;;;;;;5071593;28;20032;-68
2022/01/02 04:25:09;;;;;;;48.65;21.75;;;9.30;99.90;;;;;;5071901;28;20037;-69
2022/01/02 04:27:35;;;;;;;59.70;24.13;;;9.40;99.90;;;;;;5072127;28;20040;-68
2022/01/02 04:30:04;;;;;;;56.85;22.65;;;9.40;99.90;;;;;;5074453;28;20450;-68
2022/01/02 04:32:29;;;;;;;58.47;24.40;;;9.40;99.90;;;;;;5071086;28;20059;-68
2022/01/02 04:34:55;;;;;;;52.47;21.52;;;9.40;99.90;;;;;;5071412;28;20028;-68
2022/01/02 04:37:21;;;;;;;54.97;22.67;;;9.40;99.90;;;;;;5071321;28;20555;-68
2022/01/02 04:39:46;;;;;;;43.17;19.88;;;9.40;99.90;;;;;;5071192;28;20143;-68
2022/01/02 04:42:12;;;;;;;47.75;20.63;;;9.40;99.90;;;;;;5073601;28;20028;-68
2022/01/02 04:44:38;;;;;;;43.67;18.85;;;9.30;99.90;;;;;;5037690;28;20056;-69
2022/01/02 04:47:04;;;;;;;49.35;21.20;;;9.30;99.90;;;;;;5071181;28;20478;-68
2022/01/02 04:49:30;;;;;;;54.28;22.20;;;9.30;99.90;;;;;;5071092;28;20063;-68
2022/01/02 04:51:56;;;;;;;53.33;23.30;;;9.40;99.90;;;;;;5070776;28;20069;-68
2022/01/02 04:54:22;;;;;;;50.53;23.15;;;9.40;99.90;;;;;;5073577;28;20024;-68
2022/01/02 04:56:49;;;;;;;59.65;25.85;;;9.50;99.90;;;;;;5072474;28;20067;-68
2022/01/02 04:59:14;;;;;;;56.03;23.70;;;9.40;99.90;;;;;;5070729;28;20057;-69
2022/01/02 05:01:40;;;;;;;50.72;21.52;;;9.40;99.90;;;;;;5071326;28;20050;-68
2022/01/02 05:04:06;;;;;;;57.67;23.67;;;9.40;99.90;;;;;;5070680;28;20037;-68
2022/01/02 05:06:32;;;;;;;50.63;23.38;;;9.40;99.90;;;;;;5072173;28;20595;-68
2022/01/02 05:08:57;;;;;;;52.35;23.50;;;9.40;99.90;;;;;;5073372;28;20025;-68
2022/01/02 05:11:23;;;;;;;53.33;23.63;;;9.40;99.90;;;;;;5070674;28;20107;-68
2022/01/02 05:13:49;;;;;;;55.88;24.35;;;9.40;99.90;;;;;;5070657;28;20025;-68
2022/01/02 05:16:14;;;;;;;53.65;25.90;;;9.40;99.90;;;;;;5070144;28;20032;-68
2022/01/02 05:18:40;;;;;;;59.65;25.48;;;9.50;99.90;;;;;;5070433;28;20063;-68
2022/01/02 05:21:06;;;;;;;59.33;25.05;;;9.40;99.90;;;;;;5055804;28;20150;-68
2022/01/02 05:23:32;;;;;;;59.55;24.92;;;9.50;99.90;;;;;;5052661;28;20036;-67
2022/01/02 05:25:58;;;;;;;65.32;26.73;;;9.40;99.90;;;;;;5051224;28;20412;-68
2022/01/02 05:28:24;;;;;;;58.75;26.90;;;9.40;99.90;;;;;;5070302;28;20038;-68
2022/01/02 05:30:51;;;;;;;68.57;27.42;;;9.40;99.90;;;;;;5070288;28;20025;-68
2022/01/02 05:33:16;;;;;;;58.08;27.02;;;9.50;99.90;;;;;;5065629;28;20118;-68
2022/01/02 05:35:42;;;;;;;62.97;27.75;;;9.50;99.90;;;;;;5071723;28;20684;-68
2022/01/02 05:38:08;;;;;;;65.30;28.95;;;9.50;99.90;;;;;;5069824;28;20028;-67
2022/01/02 05:40:34;;;;;;;62.50;27.10;;;9.50;99.90;;;;;;5070003;28;20060;-68
2022/01/02 05:43:05;;;;;;;63.38;26.55;;;9.40;99.90;;;;;;5070269;28;20287;-68
2022/01/02 05:45:31;;;;;;;63.70;26.67;;;9.40;99.90;;;;;;5071341;28;20028;-68
2022/01/02 05:47:57;;;;;;;61.17;25.95;;;9.50;99.90;;;;;;5072417;28;20043;-69
2022/01/02 05:50:23;;;;;;;71.78;25.73;;;9.50;99.90;;;;;;5069740;28;20650;-68
2022/01/02 05:52:49;;;;;;;65.18;26.65;;;9.50;99.90;;;;;;5069568;28;20036;-68
2022/01/02 05:55:15;;;;;;;64.63;27.67;;;9.50;99.90;;;;;;5069453;28;20406;-68
2022/01/02 05:57:41;;;;;;;66.05;27.98;;;9.50;99.90;;;;;;5053577;28;20033;-69
2022/01/02 06:00:08;;;;;;;53.15;24.02;;;9.50;99.90;;;;;;5044163;28;20082;-68
2022/01/02 06:02:34;;;;;;;57.47;25.13;;;9.50;99.90;;;;;;5069631;28;20081;-69
2022/01/02 06:05:02;;;;;;;53.00;24.25;;;9.50;99.90;;;;;;5069669;28;20116;-68
2022/01/02 06:07:28;;;;;;;49.35;23.27;;;9.50;99.90;;;;;;5069780;28;20037;-69
2022/01/02 06:09:54;;;;;;;46.00;21.45;;;9.50;99.90;;;;;;5069262;28;20029;-68
2022/01/02 06:12:19;;;;;;;51.90;23.67;;;9.50;99.90;;;;;;5053702;28;20086;-69
2022/01/02 06:14:45;;;;;;;51.75;23.50;;;9.50;99.90;;;;;;5070674;28;20032;-68
2022/01/02 06:17:11;;;;;;;49.75;23.30;;;9.50;99.90;;;;;;5061937;28;20058;-69
2022/01/02 06:19:36;;;;;;;57.38;24.27;;;9.50;99.90;;;;;;5069472;28;20064;-68
2022/01/02 06:22:02;;;;;;;54.45;25.48;;;9.50;99.90;;;;;;5049866;28;20037;-68
2022/01/02 06:24:28;;;;;;;50.22;22.65;;;9.50;99.90;;;;;;5070418;28;20459;-68
2022/01/02 06:26:53;;;;;;;46.85;21.77;;;9.50;99.90;;;;;;5070590;28;20042;-68
2022/01/02 06:29:19;;;;;;;54.42;23.48;;;9.50;99.90;;;;;;5068959;28;20040;-69
2022/01/02 06:31:45;;;;;;;52.60;23.80;;;9.50;99.90;;;;;;5069159;28;20111;-68
2022/01/02 06:34:11;;;;;;;47.13;21.70;;;9.50;99.90;;;;;;5069034;28;20490;-69
2022/01/02 06:36:36;;;;;;;49.67;23.27;;;9.50;99.90;;;;;;5069756;28;20474;-68
2022/01/02 06:39:03;;;;;;;51.15;22.45;;;9.60;99.90;;;;;;5072335;28;20040;-68
2022/01/02 06:41:29;;;;;;;49.92;23.05;;;9.60;99.90;;;;;;5068977;28;20102;-69
2022/01/02 06:43:54;;;;;;;51.92;22.95;;;9.60;99.90;;;;;;5069001;28;20486;-68
2022/01/02 06:46:20;;;;;;;48.88;22.83;;;9.60;99.90;;;;;;5068986;28;20032;-68
2022/01/02 06:48:46;;;;;;;47.78;23.27;;;9.60;99.90;;;;;;5069246;28;20029;-68
2022/01/02 06:51:12;;;;;;;52.63;24.35;;;9.50;99.90;;;;;;5071990;28;20093;-68
2022/01/02 06:53:38;;;;;;;47.72;22.65;;;9.50;99.90;;;;;;5069875;28;20389;-68
2022/01/02 06:56:04;;;;;;;44.72;21.52;;;9.50;99.90;;;;;;5069013;28;20081;-66
2022/01/02 06:58:30;;;;;;;48.58;22.05;;;9.50;99.90;;;;;;5068705;28;20067;-66
2022/01/02 07:00:56;;;;;;;43.80;20.35;;;9.50;99.90;;;;;;5068747;28;20041;-66
2022/01/02 07:03:22;;;;;;;41.08;20.95;;;9.60;99.90;;;;;;5071065;28;20528;-66
2022/01/02 07:05:48;;;;;;;45.05;21.25;;;9.60;99.90;;;;;;5068094;28;20471;-66
2022/01/02 07:08:14;;;;;;;43.42;21.33;;;9.60;99.90;;;;;;5066423;28;20086;-66
2022/01/02 07:10:40;;;;;;;39.65;19.55;;;9.60;99.90;;;;;;5066371;28;20071;-66
2022/01/02 07:13:06;;;;;;;41.47;20.67;;;9.50;99.90;;;;;;5066749;28;20091;-66
2022/01/02 07:15:32;;;;;;;37.70;19.20;;;9.50;99.90;;;;;;5069999;28;20048;-66
2022/01/02 07:17:58;;;;;;;42.90;19.50;;;9.50;99.90;;;;;;5068136;28;20044;-66
2022/01/02 07:20:24;;;;;;;37.25;18.77;;;9.50;99.90;;;;;;5068975;28;20040;-66
2022/01/02 07:22:49;;;;;;;41.33;20.08;;;9.60;99.90;;;;;;5051416;28;20078;-66
2022/01/02 07:25:15;;;;;;;41.47;18.27;;;9.50;99.90;;;;;;5068979;28;20041;-66
2022/01/02 07:27:41;;;;;;;43.88;19.75;;;9.60;99.90;;;;;;5069425;28;20025;-67
2022/01/02 07:30:08;;;;;;;43.65;20.38;;;9.60;99.90;;;;;;5072478;28;20025;-67
2022/01/02 07:32:35;;;;;;;39.70;20.23;;;9.60;99.90;;;;;;5068554;28;20020;-67
2022/01/02 07:35:01;;;;;;;40.97;20.15;;;9.60;99.90;;;;;;5050604;28;20033;-66
2022/01/02 07:37:26;;;;;;;47.38;20.95;;;9.60;99.90;;;;;;5068503;28;20502;-66
2022/01/02 07:39:52;;;;;;;41.42;19.85;;;9.60;99.90;;;;;;5053902;28;20044;-66
2022/01/02 07:42:18;;;;;;;44.88;20.67;;;9.70;99.90;;;;;;5074597;28;20028;-66
2022/01/02 07:44:43;;;;;;;44.22;20.58;;;9.60;99.90;;;;;;5073277;28;20105;-66
2022/01/02 07:47:09;;;;;;;42.85;20.48;;;9.70;99.90;;;;;;5071856;28;20025;-66
2022/01/02 07:49:35;;;;;;;41.35;19.50;;;9.70;99.90;;;;;;5071696;28;20040;-66
2022/01/02 07:52:01;;;;;;;45.80;20.60;;;9.70;99.90;;;;;;5071965;28;20120;-66
2022/01/02 07:54:27;;;;;;;41.88;19.98;;;9.60;99.90;;;;;;5047813;28;20032;-66
2022/01/02 07:56:52;;;;;;;43.33;19.63;;;9.70;99.90;;;;;;5071347;28;20379;-66
2022/01/02 07:59:18;;;;;;;39.78;19.08;;;9.70;99.90;;;;;;5069347;28;20041;-66
2022/01/02 08:01:44;;;;;;;42.40;18.40;;;9.70;99.90;;;;;;5070570;28;20028;-66
2022/01/02 08:04:10;;;;;;;41.33;19.33;;;9.60;99.90;;;;;;5069935;28;20071;-66
2022/01/02 08:06:35;;;;;;;41.28;19.98;;;9.60;99.90;;;;;;5048638;28;20120;-66
2022/01/02 08:09:01;;;;;;;39.67;18.60;;;9.60;99.90;;;;;;5071206;28;20528;-66
2022/01/02 08:11:27;;;;;;;46.28;18.55;;;9.70;99.90;;;;;;5069136;28;20041;-66
2022/01/02 08:13:53;;;;;;;43.15;19.38;;;9.60;99.90;;;;;;5069764;28;20423;-66
2022/01/02 08:16:18;;;;;;;46.85;21.00;;;9.60;99.90;;;;;;5069407;28;20116;-66
2022/01/02 08:18:44;;;;;;;45.33;19.20;;;9.60;99.90;;;;;;5073049;28;20109;-66
2022/01/02 08:21:10;;;;;;;46.25;19.30;;;9.60;99.90;;;;;;5071121;28;20032;-66
2022/01/02 08:23:35;;;;;;;51.33;20.05;;;9.50;99.90;;;;;;5051721;28;20031;-66
2022/01/02 08:26:03;;;;;;;43.60;20.35;;;9.50;99.90;;;;;;5069321;28;20040;-67
2022/01/02 08:28:28;;;;;;;45.53;19.23;;;9.60;99.90;;;;;;5069505;28;20029;-66
2022/01/02 08:30:54;;;;;;;45.45;19.00;;;9.60;99.90;;;;;;5072002;28;20043;-66
2022/01/02 08:33:20;;;;;;;44.13;19.52;;;9.60;99.90;;;;;;5071419;28;20035;-67
2022/01/02 08:35:48;;;;;;;44.75;19.38;;;9.60;99.90;;;;;;5070523;28;20052;-67
2022/01/02 08:38:14;;;;;;;45.25;19.60;;;9.60;99.90;;;;;;5069189;28;20032;-66
2022/01/02 08:40:41;;;;;;;37.35;18.75;;;9.70;99.90;;;;;;5068762;28;20039;-67
2022/01/02 08:43:07;;;;;;;39.13;18.70;;;9.70;99.90;;;;;;5070011;28;20041;-68
2022/01/02 08:45:35;;;;;;;40.78;18.70;;;9.80;99.90;;;;;;5072814;28;20457;-67
2022/01/02 08:48:01;;;;;;;41.05;18.70;;;9.80;99.90;;;;;;5068858;28;20079;-67
2022/01/02 08:50:27;;;;;;;39.28;19.20;;;9.80;99.90;;;;;;5067919;28;20095;-67
2022/01/02 08:52:53;;;;;;;40.40;19.13;;;9.80;99.90;;;;;;5068275;28;20452;-67
2022/01/02 08:55:19;;;;;;;34.05;17.02;;;9.90;99.90;;;;;;5071676;28;20032;-66
2022/01/02 08:57:45;;;;;;;42.85;19.00;;;9.90;99.90;;;;;;5072562;28;20083;-69
2022/01/02 09:00:11;;;;;;;41.90;17.13;;;9.90;99.90;;;;;;5072917;28;20045;-68
2022/01/02 09:02:37;;;;;;;37.55;16.58;;;9.90;99.90;;;;;;5070629;28;20035;-70
2022/01/02 09:05:03;;;;;;;36.53;17.92;;;9.90;99.90;;;;;;5070452;28;20036;-72
2022/01/02 09:07:29;;;;;;;36.13;16.80;;;9.90;99.90;;;;;;5070091;28;20043;-72
2022/01/02 09:09:55;;;;;;;38.13;18.05;;;9.90;99.90;;;;;;5071842;28;20486;-72
2022/01/02 09:12:21;;;;;;;35.67;17.25;;;9.90;99.90;;;;;;5069690;28;20032;-71
2022/01/02 09:14:46;;;;;;;33.83;17.15;;;9.90;99.90;;;;;;5071192;28;20028;-71
2022/01/02 09:17:12;;;;;;;35.67;16.48;;;9.90;99.90;;;;;;5069358;28;20036;-71
2022/01/02 09:19:38;;;;;;;32.67;15.13;;;9.90;99.90;;;;;;5069206;28;20032;-72
2022/01/02 09:22:04;;;;;;;33.92;15.52;;;9.90;99.90;;;;;;5068422;28;20043;-71
2022/01/02 09:24:30;;;;;;;32.00;15.82;;;9.80;99.90;;;;;;5064917;28;20029;-71
2022/01/02 09:26:56;;;;;;;36.90;19.27;;;9.80;99.90;;;;;;5069759;28;20056;-72
2022/01/02 09:29:22;;;;;;;40.20;17.77;;;9.80;99.90;;;;;;5067246;28;20037;-72
2022/01/02 09:31:48;;;;;;;31.70;16.42;;;9.80;99.90;;;;;;5067143;28;20467;-71
2022/01/02 09:34:14;;;;;;;35.13;15.98;;;9.90;99.90;;;;;;5069413;28;20071;-72
2022/01/02 09:36:40;;;;;;;32.55;16.17;;;9.90;99.90;;;;;;5067617;28;20494;-71
2022/01/02 09:39:06;;;;;;;32.92;16.27;;;9.90;99.90;;;;;;5069695;28;20043;-71
2022/01/02 09:41:32;;;;;;;24.60;13.45;;;9.90;99.90;;;;;;5066278;28;20498;-71
2022/01/02 09:43:59;;;;;;;29.55;13.80;;;9.90;99.90;;;;;;5066604;28;20585;-73
2022/01/02 09:46:26;;;;;;;24.60;13.20;;;10.00;99.90;;;;;;5045151;28;20127;-72
2022/01/02 09:48:54;;;;;;;25.08;12.80;;;10.00;99.90;;;;;;5067792;28;20084;-72
2022/01/02 09:51:25;;;;;;;21.35;11.52;;;10.10;99.90;;;;;;5066710;28;20031;-72
2022/01/02 09:53:53;;;;;;;21.35;11.63;;;10.10;99.90;;;;;;5067091;28;20036;-72
2022/01/02 09:56:19;;;;;;;26.02;13.23;;;10.20;99.90;;;;;;5065915;28;20035;-70
2022/01/02 09:58:45;;;;;;;24.98;12.80;;;10.20;99.90;;;;;;5065223;28;20037;-69
2022/01/02 10:01:24;;;;;;;21.15;11.40;;;10.30;99.90;;;;;;5068186;28;20079;-69
2022/01/02 10:03:53;;;;;;;25.60;12.80;;;10.30;99.90;;;;;;5067082;28;20028;-70
2022/01/02 10:06:20;;;;;;;24.45;13.07;;;10.30;99.90;;;;;;5067174;28;20029;-70
2022/01/02 10:08:46;;;;;;;22.65;10.93;;;10.30;99.90;;;;;;5066684;28;20021;-69
2022/01/02 10:11:19;;;;;;;26.17;12.70;;;10.30;99.90;;;;;;5046579;28;20067;-69
2022/01/02 10:13:51;;;;;;;24.95;13.05;;;10.30;99.90;;;;;;5064168;28;20029;-71
2022/01/02 10:16:37;;;;;;;22.80;11.93;;;10.20;99.90;;;;;;5067864;28;20517;-71
2022/01/02 10:19:29;;;;;;;24.38;11.68;;;10.20;99.90;;;;;;5066154;28;20052;-70
2022/01/02 10:22:03;;;;;;;24.20;11.10;;;10.30;99.90;;;;;;5065881;28;20104;-70
2022/01/02 10:24:31;;;;;;;24.27;12.70;;;10.20;99.90;;;;;;5059933;28;20031;-70
2022/01/02 10:27:14;;;;;;;23.67;11.80;;;10.20;99.90;;;;;;5065827;28;20459;-69
2022/01/02 10:29:46;;;;;;;26.77;13.75;;;10.30;99.90;;;;;;5063528;28;20032;-71
2022/01/02 10:32:34;;;;;;;31.65;14.93;;;10.40;99.90;;;;;;5063084;28;20058;-70
2022/01/02 10:35:18;;;;;;;25.38;13.30;;;10.50;99.90;;;;;;5062363;28;20056;-70
2022/01/02 10:37:56;;;;;;;27.08;14.07;;;10.50;99.90;;;;;;5067644;28;20040;-71
2022/01/02 10:40:33;;;;;;;26.17;13.73;;;10.50;99.90;;;;;;5065098;28;20044;-70
2022/01/02 10:43:02;;;;;;;28.08;14.05;;;10.50;99.90;;;;;;5067538;28;20028;-70
2022/01/02 10:45:58;;;;;;;37.15;16.73;;;10.40;99.90;;;;;;5067923;28;20106;-70
2022/01/02 10:48:35;;;;;;;29.83;13.88;;;10.40;99.90;;;;;;5063920;28;20036;-70
2022/01/02 10:51:05;;;;;;;27.83;13.48;;;10.40;99.90;;;;;;5068337;28;20020;-70
2022/01/02 10:53:33;;;;;;;30.00;14.55;;;10.50;99.90;;;;;;5068307;28;20021;-72
2022/01/02 10:56:00;;;;;;;27.75;14.15;;;10.50;99.90;;;;;;5066674;28;20032;-70
2022/01/02 10:58:27;;;;;;;28.05;13.82;;;10.50;99.90;;;;;;5067359;28;20039;-71
2022/01/02 11:00:55;;;;;;;28.88;14.65;;;10.50;99.90;;;;;;5067111;28;20641;-71
2022/01/02 11:03:24;;;;;;;25.50;13.60;;;10.50;99.90;;;;;;5069632;28;20024;-70
2022/01/02 11:05:56;;;;;;;28.48;14.15;;;10.50;99.90;;;;;;5068755;28;20028;-71
2022/01/02 11:08:23;;;;;;;31.90;15.15;;;10.60;99.90;;;;;;5066276;28;20036;-73
2022/01/02 11:10:50;;;;;;;32.55;15.07;;;10.70;99.90;;;;;;5066777;28;20024;-72
2022/01/02 11:13:17;;;;;;;26.08;13.18;;;10.90;99.90;;;;;;5067673;28;20025;-71
2022/01/02 11:15:43;;;;;;;29.65;14.32;;;11.10;99.90;;;;;;5070904;28;20029;-71
2022/01/02 11:18:10;;;;;;;29.60;14.80;;;11.20;99.90;;;;;;5074367;28;21481;-71
2022/01/02 11:20:36;;;;;;;27.70;15.20;;;11.20;99.90;;;;;;5069217;28;20097;-72
2022/01/02 11:23:12;;;;;;;48.55;26.65;;;11.20;99.90;;;;;;5070159;28;20738;-72
2022/01/02 11:26:03;;;;;;;74.88;38.63;;;11.10;99.90;;;;;;5071206;28;20063;-76
2022/01/02 11:28:40;;;;;;;97.60;47.40;;;11.00;99.90;;;;;;5066259;28;20016;-72
2022/01/02 11:31:09;;;;;;;118.10;57.70;;;11.10;99.90;;;;;;5071587;28;20025;-73
2022/01/02 11:33:40;;;;;;;93.15;52.00;;;11.10;99.90;;;;;;5073555;28;20017;-75
2022/01/02 11:36:23;;;;;;;49.15;26.48;;;11.20;99.90;;;;;;5074312;28;20093;-73
2022/01/02 11:39:04;;;;;;;30.58;15.88;;;11.30;99.90;;;;;;5074359;28;20045;-73
2022/01/02 11:41:53;;;;;;;30.65;14.85;;;11.20;99.90;;;;;;5051565;28;20032;-72
2022/01/02 11:44:48;;;;;;;29.75;14.55;;;11.10;99.90;;;;;;5060090;28;20041;-72
2022/01/02 11:47:33;;;;;;;;;;;11.10;99.90;;;;;;5071717;28;20021;-72
2022/01/02 11:49:59;;;;;;;31.30;14.52;;;11.00;99.90;;;;;;5071321;28;19958;-71
2022/01/02 11:52:26;;;;;;;30.83;15.23;;;11.20;99.90;;;;;;5072002;28;20055;-71
2022/01/02 11:54:56;;;;;;;29.92;16.33;;;11.30;99.90;;;;;;5071646;28;20414;-71
2022/01/02 11:57:27;;;;;;;30.52;15.48;;;11.30;99.90;;;;;;5071492;28;20048;-72
2022/01/02 11:59:56;;;;;;;31.27;15.80;;;11.30;99.90;;;;;;5071764;28;20094;-70
2022/01/02 12:02:23;;;;;;;33.42;16.02;;;11.30;99.90;;;;;;5071041;28;20404;-72
2022/01/02 12:07:35;;;;;;;28.05;15.85;;;11.30;99.90;;;;;;5064561;28;20695;-69
2022/01/02 12:10:16;;;;;;;32.53;17.52;;;11.20;99.90;;;;;;5071699;28;20155;-69
2022/01/02 12:15:34;;;;;;;38.63;20.55;;;11.20;99.90;;;;;;5070855;28;20028;-69
2022/01/02 12:18:27;;;;;;;39.75;22.83;;;11.10;99.90;;;;;;5072437;28;20032;-69
2022/01/02 12:20:53;;;;;;;43.85;25.90;;;11.10;99.90;;;;;;5071622;28;20518;-69
2022/01/02 12:23:36;;;;;;;41.22;22.17;;;11.20;99.90;;;;;;5069915;28;20654;-68
2022/01/02 12:26:25;;;;;;;39.45;23.45;;;11.20;99.90;;;;;;5069483;28;20437;-68
2022/01/02 12:28:57;;;;;;;42.30;19.73;;;11.20;99.90;;;;;;5069595;28;20033;-69
2022/01/02 12:31:43;;;;;;;33.88;18.50;;;11.30;99.90;;;;;;5062028;28;20032;-69
2022/01/02 12:34:19;;;;;;;38.78;18.20;;;11.40;99.90;;;;;;5070797;28;20093;-69
2022/01/02 12:36:51;;;;;;;39.45;19.52;;;11.40;99.90;;;;;;5047631;28;20434;-69
2022/01/02 12:39:27;;;;;;;45.78;20.10;;;11.50;99.90;;;;;;5073320;28;20047;-68
2022/01/02 12:41:53;;;;;;;38.95;19.52;;;11.70;99.90;;;;;;5071808;28;20551;-69
2022/01/02 12:44:30;;;;;;;38.33;18.77;;;11.80;99.90;;;;;;5070162;28;20039;-69
2022/01/02 12:47:01;;;;;;;40.25;20.52;;;12.10;99.90;;;;;;5070942;28;20028;-68
2022/01/02 12:49:30;;;;;;;40.70;20.15;;;12.10;99.90;;;;;;5070744;28;20119;-67
2022/01/02 12:52:07;;;;;;;38.42;20.45;;;12.10;99.90;;;;;;5052444;28;20032;-68